Time;durP1;ratioP1;P1;durP2;ratioP2;P2;SDS_P1;SDS_P2;PMS_P1;PMS_P2;Temp;Humidity;BMP_temperature;BMP_pressure;BME280_temperature;BME280_humidity;BME280_pressure;Samples;Min_cycle;Max_cycle;Signal;HPM_P1;HPM_P2
2023/08/28 00:00:10;;;;;;;5.00;3.28;;;;;;;16.69;100.00;95874.75;6186048;23;20286;-84
2023/08/28 00:02:36;;;;;;;3.78;2.80;;;;;;;16.90;100.00;95860.47;6209434;23;20032;-84
2023/08/28 00:05:02;;;;;;;5.68;3.35;;;;;;;17.02;100.00;95850.00;6185970;23;20015;-84
2023/08/28 00:07:28;;;;;;;6.45;3.20;;;;;;;17.06;100.00;95848.56;6186086;23;20008;-83
2023/08/28 00:09:53;;;;;;;5.85;2.65;;;;;;;16.78;100.00;95859.47;6210231;23;20000;-84
2023/08/28 00:12:19;;;;;;;8.55;3.78;;;;;;;16.81;100.00;95858.25;6213203;23;20000;-84
2023/08/28 00:14:44;;;;;;;6.13;3.95;;;;;;;16.77;100.00;95852.53;6191823;23;20018;-83
2023/08/28 00:17:17;;;;;;;8.88;3.85;;;;;;;16.83;100.00;95850.88;6214952;23;20004;-84
2023/08/28 00:19:43;;;;;;;6.47;3.92;;;;;;;16.98;100.00;95832.88;6214757;23;20035;-84
2023/08/28 00:22:09;;;;;;;6.07;3.42;;;;;;;16.83;100.00;95829.63;6189431;23;20356;-84
2023/08/28 00:24:34;;;;;;;7.60;4.07;;;;;;;16.96;100.00;95806.50;6215046;23;20075;-84
2023/08/28 00:27:01;;;;;;;5.68;3.35;;;;;;;16.95;100.00;95801.41;6215175;23;20004;-84
2023/08/28 00:29:27;;;;;;;8.90;4.15;;;;;;;16.91;100.00;95790.38;6216286;23;20004;-84
2023/08/28 00:31:53;;;;;;;6.57;3.92;;;;;;;16.73;100.00;95793.69;6215203;23;20099;-84
2023/08/28 00:34:18;;;;;;;7.18;3.65;;;;;;;16.77;100.00;95790.63;6190702;23;20000;-84
2023/08/28 00:36:44;;;;;;;6.53;3.53;;;;;;;16.84;100.00;95789.59;6191390;23;20004;-83
2023/08/28 00:39:10;;;;;;;7.40;4.00;;;;;;;16.90;100.00;95795.91;6191454;23;20027;-84
2023/08/28 00:41:36;;;;;;;5.80;3.72;;;;;;;16.87;100.00;95807.78;6216483;23;20047;-84
2023/08/28 00:44:03;;;;;;;6.63;3.45;;;;;;;16.73;100.00;95808.78;6191173;23;20121;-84
2023/08/28 00:46:30;;;;;;;6.72;4.25;;;;;;;16.93;100.00;95804.28;6190846;23;20034;-84
2023/08/28 00:48:56;;;;;;;6.40;4.28;;;;;;;17.01;100.00;95813.84;6190423;23;20000;-84
2023/08/28 00:51:22;;;;;;;5.50;3.58;;;;;;;16.95;100.00;95828.78;6189879;23;20375;-84
2023/08/28 00:53:48;;;;;;;7.45;4.07;;;;;;;16.90;100.00;95833.91;6190915;23;20321;-84
2023/08/28 00:56:13;;;;;;;5.10;3.38;;;;;;;16.94;100.00;95827.16;6216009;23;20073;-84
2023/08/28 00:58:39;;;;;;;6.70;3.30;;;;;;;16.96;100.00;95824.28;6189186;23;20008;-84
2023/08/28 01:01:04;;;;;;;7.50;3.47;;;;;;;16.90;100.00;95830.41;6214464;23;20027;-84
2023/08/28 01:03:35;;;;;;;6.75;3.65;;;;;;;16.58;100.00;95843.53;6189522;23;20034;-84
2023/08/28 01:06:36;;;;;;;5.47;3.60;;;;;;;16.79;100.00;95839.84;6216213;23;20032;-84
2023/08/28 01:09:34;;;;;;;7.68;3.67;;;;;;;16.88;100.00;95848.44;6152424;23;20039;-84
2023/08/28 01:12:15;;;;;;;6.10;3.47;;;;;;;16.82;100.00;95849.25;6190272;23;20011;-84
2023/08/28 01:15:07;;;;;;;6.68;4.05;;;;;;;16.90;100.00;95836.56;6215119;23;20000;-84
2023/08/28 01:17:35;;;;;;;6.32;4.13;;;;;;;16.86;100.00;95839.84;6202578;23;20008;-84
2023/08/28 01:20:04;;;;;;;5.82;3.72;;;;;;;16.85;100.00;95836.38;6190096;23;20008;-84
2023/08/28 01:22:42;;;;;;;6.30;4.20;;;;;;;17.02;100.00;95843.88;6215160;23;20106;-84
2023/08/28 01:25:12;;;;;;;7.63;3.97;;;;;;;16.96;100.00;95838.38;6191275;23;20000;-84
2023/08/28 01:27:38;;;;;;;7.03;4.20;;;;;;;17.09;100.00;95842.84;6190537;23;20504;-83
2023/08/28 01:30:11;;;;;;;7.88;4.68;;;;;;;16.91;100.00;95848.00;6215144;23;20011;-84
2023/08/28 01:32:38;;;;;;;5.40;3.70;;;;;;;16.75;100.00;95837.81;6214953;23;20079;-84
2023/08/28 01:35:14;;;;;;;5.63;3.80;;;;;;;16.89;100.00;95824.28;6215378;23;20087;-84
2023/08/28 01:37:45;;;;;;;6.78;3.38;;;;;;;16.82;100.00;95828.00;6189771;23;20012;-84
2023/08/28 01:40:14;;;;;;;7.00;4.32;;;;;;;16.92;100.00;95831.03;6241598;23;20004;-84
2023/08/28 01:42:49;;;;;;;7.43;3.95;;;;;;;16.95;100.00;95833.28;6215109;23;20018;-83
2023/08/28 01:45:39;;;;;;;7.70;4.57;;;;;;;16.98;100.00;95832.88;6190490;23;20004;-84
2023/08/28 01:48:06;;;;;;;7.20;3.53;;;;;;;16.88;100.00;95838.63;6189345;23;20098;-84
2023/08/28 01:50:32;;;;;;;7.50;4.28;;;;;;;16.98;100.00;95832.88;6189925;23;20504;-84
2023/08/28 01:53:07;;;;;;;6.72;3.50;;;;;;;16.86;100.00;95822.06;6215481;23;20027;-84
2023/08/28 01:55:44;;;;;;;8.38;4.20;;;;;;;16.89;100.00;95820.84;6190044;23;20015;-84
2023/08/28 01:58:10;;;;;;;8.48;3.78;;;;;;;16.95;100.00;95812.84;6189278;23;20008;-85
2023/08/28 02:00:36;;;;;;;7.97;4.40;;;;;;;17.04;100.00;95821.41;6189188;23;20011;-84
2023/08/28 02:03:02;;;;;;;8.15;3.92;;;;;;;17.16;100.00;95809.09;6192747;23;20004;-84
2023/08/28 02:05:28;;;;;;;8.02;4.43;;;;;;;17.15;100.00;95812.78;6192772;23;20011;-84
2023/08/28 02:07:53;;;;;;;8.30;4.45;;;;;;;16.94;100.00;95810.41;6192319;23;20008;-84
2023/08/28 02:10:19;;;;;;;5.97;4.30;;;;;;;16.95;100.00;95807.53;6218199;23;20007;-84
2023/08/28 02:13:02;;;;;;;5.90;3.95;;;;;;;17.03;100.00;95814.44;6218329;23;19996;-84
2023/08/28 02:15:28;;;;;;;8.80;4.40;;;;;;;17.12;100.00;95813.19;6192623;23;20008;-84
2023/08/28 02:17:53;;;;;;;5.57;3.65;;;;;;;17.12;100.00;95796.44;6217930;23;20069;-84
2023/08/28 02:20:19;;;;;;;68.00;6.30;;;;;;;16.84;100.00;95802.06;6216717;23;20026;-84
2023/08/28 02:22:44;;;;;;;7.07;3.55;;;;;;;17.09;100.00;95802.16;6193009;23;20008;-85
2023/08/28 02:25:10;;;;;;;6.68;4.20;;;;;;;17.20;100.00;95793.53;6193111;23;20412;-84
2023/08/28 02:27:50;;;;;;;5.63;3.72;;;;;;;17.23;100.00;95781.66;6217536;23;20436;-83
2023/08/28 02:30:17;;;;;;;8.68;4.45;;;;;;;17.19;100.00;95768.00;6191682;23;20012;-86
2023/08/28 02:32:43;;;;;;;8.63;4.38;;;;;;;17.23;100.00;95758.56;6191197;23;20011;-84
2023/08/28 02:35:11;;;;;;;6.72;4.13;;;;;;;17.20;100.00;95759.00;6217308;23;20070;-84
2023/08/28 02:37:47;;;;;;;6.40;4.50;;;;;;;17.22;100.00;95753.47;6192055;23;20151;-84
2023/08/28 02:40:12;;;;;;;8.13;4.40;;;;;;;17.16;100.00;95755.13;6213139;23;20077;-84
2023/08/28 02:42:38;;;;;;;7.70;4.93;;;;;;;17.11;100.00;95758.44;6216902;23;20008;-84
2023/08/28 02:45:05;;;;;;;6.57;4.80;;;;;;;17.12;100.00;95751.28;6192093;23;20008;-84
2023/08/28 02:47:32;;;;;;;9.77;5.55;;;;;;;17.11;100.00;95747.81;6192944;23;20031;-84
2023/08/28 02:49:57;;;;;;;9.40;5.28;;;;;;;17.05;100.00;95737.22;6217280;23;20005;-83
2023/08/28 02:52:23;;;;;;;7.13;4.85;;;;;;;17.12;100.00;95732.69;6216370;23;20008;-84
2023/08/28 02:54:49;;;;;;;8.73;5.68;;;;;;;17.18;100.00;95732.63;6216905;23;20847;-85
2023/08/28 02:57:19;;;;;;;8.88;5.85;;;;;;;16.94;100.00;95736.03;6191483;23;20462;-84
2023/08/28 02:59:44;;;;;;;10.77;5.97;;;;;;;16.98;100.00;95723.97;6216659;23;20000;-84
2023/08/28 03:02:10;;;;;;;8.40;5.45;;;;;;;17.02;100.00;95725.16;6216398;23;20034;-83
2023/08/28 03:04:36;;;;;;;7.85;5.32;;;;;;;17.20;100.00;95725.28;6214954;23;20254;-84
2023/08/28 03:07:01;;;;;;;9.95;6.38;;;;;;;17.12;100.00;95722.06;6190282;23;20008;-84
2023/08/28 03:09:29;;;;;;;14.25;6.40;;;;;;;17.05;100.00;95722.09;6188178;23;20004;-84
2023/08/28 03:11:55;;;;;;;7.60;5.28;;;;;;;16.89;100.00;95720.72;6189931;23;20011;-83
2023/08/28 03:14:21;;;;;;;8.90;5.95;;;;;;;16.94;100.00;95726.22;6189688;23;20008;-84
2023/08/28 03:16:51;;;;;;;9.25;5.40;;;;;;;17.03;100.00;95723.31;6214818;23;20015;-84
2023/08/28 03:19:17;;;;;;;7.30;5.20;;;;;;;16.94;100.00;95733.38;6189525;23;20032;-83
2023/08/28 03:21:43;;;;;;;9.38;5.70;;;;;;;16.83;100.00;95728.72;6189064;23;20008;-84
2023/08/28 03:24:08;;;;;;;9.18;5.72;;;;;;;16.80;100.00;95731.78;6190394;23;20031;-84
2023/08/28 03:26:34;;;;;;;7.80;5.00;;;;;;;16.94;100.00;95725.41;6215606;23;20008;-84
2023/08/28 03:29:01;;;;;;;10.15;5.38;;;;;;;17.03;100.00;95724.13;6190856;23;20000;-84
2023/08/28 03:31:27;;;;;;;7.32;5.63;;;;;;;17.00;100.00;95737.00;6215369;23;20015;-84
2023/08/28 03:33:53;;;;;;;8.30;5.28;;;;;;;17.13;100.00;95734.28;6188966;23;20388;-84
2023/08/28 03:36:30;;;;;;;10.90;6.30;;;;;;;17.14;100.00;95734.09;6190255;23;20008;-84
2023/08/28 03:38:55;;;;;;;9.02;6.20;;;;;;;17.01;100.00;95726.19;6190569;23;20004;-83
2023/08/28 03:41:21;;;;;;;9.23;6.15;;;;;;;16.90;100.00;95730.34;6190425;23;20023;-84
2023/08/28 03:43:52;;;;;;;10.73;6.47;;;;;;;16.91;100.00;95742.59;6189062;23;20077;-84
2023/08/28 03:46:18;;;;;;;9.38;6.47;;;;;;;16.84;100.00;95757.72;6189047;23;20035;-84
2023/08/28 03:48:44;;;;;;;11.75;6.30;;;;;;;16.91;100.00;95757.72;6214430;23;20011;-84
2023/08/28 03:51:11;;;;;;;10.23;5.47;;;;;;;16.91;100.00;95753.22;6213991;23;20488;-84
2023/08/28 03:53:41;;;;;;;8.38;5.18;;;;;;;16.87;100.00;95749.34;6189510;23;20008;-84
2023/08/28 03:56:06;;;;;;;6.60;4.95;;;;;;;17.00;100.00;95764.41;6189865;23;20004;-84
2023/08/28 03:58:32;;;;;;;6.93;4.95;;;;;;;16.96;100.00;95771.16;6189703;23;20004;-84
2023/08/28 04:01:00;;;;;;;6.95;4.95;;;;;;;17.03;100.00;95766.63;6189512;23;20004;-84
2023/08/28 04:03:25;;;;;;;11.73;5.25;;;;;;;16.94;100.00;95760.75;6216850;23;20011;-84
2023/08/28 04:05:52;;;;;;;34.95;7.18;;;;;;;16.75;100.00;95764.28;6192105;23;20509;-85
2023/08/28 04:08:19;;;;;;;12.18;6.30;;;;;;;16.73;100.00;95761.81;6191488;23;20444;-84
2023/08/28 04:10:46;;;;;;;10.05;5.53;;;;;;;16.78;100.00;95763.06;6191386;23;20004;-84
2023/08/28 04:13:12;;;;;;;7.18;5.18;;;;;;;16.85;100.00;95755.88;6217212;23;20023;-84
2023/08/28 04:15:38;;;;;;;9.35;5.93;;;;;;;16.93;100.00;95758.28;6192174;23;20058;-84
2023/08/28 04:18:04;;;;;;;8.70;5.38;;;;;;;16.80;100.00;95753.03;6242127;23;20000;-84
2023/08/28 04:20:30;;;;;;;8.25;5.95;;;;;;;16.91;100.00;95753.22;6215567;23;20019;-84
2023/08/28 04:22:56;;;;;;;42.20;7.55;;;;;;;16.88;100.00;95742.19;6216291;23;20079;-84
2023/08/28 04:25:21;;;;;;;9.50;6.82;;;;;;;16.76;100.00;95746.50;6216640;23;20440;-84
2023/08/28 04:27:47;;;;;;;9.93;7.05;;;;;;;16.81;100.00;95736.09;6191493;23;20023;-84
2023/08/28 04:30:12;;;;;;;9.55;6.85;;;;;;;16.87;100.00;95735.25;6191025;23;20087;-84
2023/08/28 04:32:39;;;;;;;23.98;7.80;;;;;;;16.57;100.00;95735.72;6190345;23;20023;-83
2023/08/28 04:35:06;;;;;;;8.90;7.00;;;;;;;16.59;100.00;95738.16;6192405;23;20004;-84
2023/08/28 04:37:32;;;;;;;11.75;7.95;;;;;;;16.69;100.00;95723.41;6215859;23;20019;-83
2023/08/28 04:39:58;;;;;;;9.07;6.53;;;;;;;16.74;100.00;95725.47;6191076;23;20004;-83
2023/08/28 04:42:24;;;;;;;14.52;5.65;;;;;;;16.80;100.00;95727.31;6191307;23;20015;-83
2023/08/28 04:44:50;;;;;;;9.68;6.18;;;;;;;16.86;100.00;95733.59;6190302;23;20016;-83
2023/08/28 04:47:15;;;;;;;7.82;6.78;;;;;;;16.88;100.00;95726.25;6190570;23;20015;-84
2023/08/28 04:49:41;;;;;;;8.00;5.82;;;;;;;16.71;100.00;95724.03;6189889;23;20007;-83
2023/08/28 04:52:08;;;;;;;7.88;6.32;;;;;;;16.78;100.00;95726.69;6190223;23;20080;-83
2023/08/28 04:54:34;;;;;;;8.75;6.70;;;;;;;16.81;100.00;95726.28;6215643;23;20086;-83
2023/08/28 04:57:00;;;;;;;11.20;7.20;;;;;;;16.65;100.00;95726.72;6190268;23;20015;-83
2023/08/28 04:59:27;;;;;;;8.52;6.90;;;;;;;16.62;100.00;95724.47;6242245;23;20000;-83
2023/08/28 05:01:55;;;;;;;8.82;6.65;;;;;;;16.75;100.00;95713.03;6215235;23;20000;-84
2023/08/28 05:04:21;;;;;;;9.93;6.53;;;;;;;16.82;100.00;95716.47;6215056;23;20444;-83
2023/08/28 05:06:46;;;;;;;8.65;6.78;;;;;;;16.81;100.00;95706.88;6189886;23;20007;-83
2023/08/28 05:09:14;;;;;;;27.08;7.65;;;;;;;16.62;100.00;95712.00;6192187;23;20024;-83
2023/08/28 05:11:40;;;;;;;9.32;6.32;;;;;;;16.86;100.00;95707.84;6216775;23;20224;-83
2023/08/28 05:14:05;;;;;;;8.65;6.72;;;;;;;17.01;100.00;95704.13;6190141;23;20513;-83
2023/08/28 05:16:31;;;;;;;8.55;7.00;;;;;;;17.12;100.00;95695.47;6215898;23;20016;-82
2023/08/28 05:18:58;;;;;;;9.85;6.35;;;;;;;16.96;100.00;95702.09;6215542;23;20000;-85
2023/08/28 05:21:23;;;;;;;17.20;5.60;;;;;;;16.90;100.00;95697.63;6189574;23;20309;-83
2023/08/28 05:23:50;;;;;;;7.72;5.97;;;;;;;16.96;100.00;95712.72;6216187;23;20085;-83
2023/08/28 05:26:16;;;;;;;7.30;5.90;;;;;;;16.99;100.00;95717.59;6215769;23;20337;-83
2023/08/28 05:28:41;;;;;;;8.32;6.28;;;;;;;17.04;100.00;95720.47;6215510;23;20054;-83
2023/08/28 05:31:07;;;;;;;9.95;6.03;;;;;;;17.01;100.00;95715.56;6215492;23;20004;-83
2023/08/28 05:33:36;;;;;;;7.70;6.07;;;;;;;17.11;100.00;95715.94;6188775;23;20000;-83
2023/08/28 05:36:03;;;;;;;8.30;5.97;;;;;;;17.14;100.00;95709.38;6189651;23;20094;-83
2023/08/28 05:38:29;;;;;;;7.72;5.63;;;;;;;17.18;100.00;95710.56;6190254;23;20012;-83
2023/08/28 05:40:54;;;;;;;7.65;5.72;;;;;;;17.17;100.00;95695.66;6189772;23;20127;-83
2023/08/28 05:43:20;;;;;;;8.57;5.10;;;;;;;17.08;100.00;95696.94;6189918;23;20424;-84
2023/08/28 05:45:50;;;;;;;8.20;5.70;;;;;;;17.09;100.00;95690.59;6193743;23;20345;-84
2023/08/28 05:48:16;;;;;;;9.40;5.18;;;;;;;17.01;100.00;95699.63;6190940;23;20008;-84
2023/08/28 05:50:48;;;;;;;6.28;5.15;;;;;;;16.97;100.00;95687.81;6214309;23;20466;-85
2023/08/28 05:53:14;;;;;;;9.40;5.65;;;;;;;17.03;100.00;95694.09;6214309;23;20027;-84
2023/08/28 05:55:41;;;;;;;14.77;7.30;;;;;;;16.85;100.00;95692.16;6215935;23;20086;-85
2023/08/28 05:58:06;;;;;;;13.55;6.93;;;;;;;16.87;100.00;95693.56;6239309;23;20543;-84
2023/08/28 06:00:32;;;;;;;8.88;6.80;;;;;;;16.97;100.00;95682.50;6214588;23;20009;-84
2023/08/28 06:02:58;;;;;;;9.32;6.60;;;;;;;16.88;100.00;95684.56;6215295;23;20007;-84
2023/08/28 06:05:25;;;;;;;11.02;6.97;;;;;;;16.91;100.00;95691.31;6215404;23;20008;-84
2023/08/28 06:07:51;;;;;;;8.35;7.05;;;;;;;17.16;100.00;95699.34;6190128;23;20023;-83
2023/08/28 06:10:19;;;;;;;9.98;7.85;;;;;;;17.18;100.00;95695.44;6188228;23;20004;-84
2023/08/28 06:12:48;;;;;;;10.88;7.70;;;;;;;17.22;100.00;95701.13;6190162;23;20036;-84
2023/08/28 06:15:18;;;;;;;9.38;6.95;;;;;;;17.28;100.00;95697.63;6213015;23;20031;-84
2023/08/28 06:17:50;;;;;;;8.85;7.07;;;;;;;17.18;100.00;95679.50;6214554;23;20428;-84
2023/08/28 06:20:31;;;;;;;9.27;6.35;;;;;;;17.16;100.00;95670.09;6189607;23;20010;-84
2023/08/28 06:22:56;;;;;;;8.77;6.65;;;;;;;17.22;100.00;95663.13;6190626;23;20012;-84
2023/08/28 06:25:22;;;;;;;7.82;6.10;;;;;;;17.07;100.00;95655.44;6214819;23;20464;-84
2023/08/28 06:27:48;;;;;;;9.85;6.88;;;;;;;16.84;100.00;95656.81;6215106;23;20421;-84
2023/08/28 06:30:13;;;;;;;7.70;6.30;;;;;;;16.96;100.00;95654.28;6214263;23;20003;-84
2023/08/28 06:32:40;;;;;;;7.78;5.85;;;;;;;16.65;100.00;95660.34;6214687;23;20024;-84
2023/08/28 06:35:07;;;;;;;9.32;6.70;;;;;;;16.94;100.00;95656.34;6213364;23;20012;-84
2023/08/28 06:37:32;;;;;;;16.67;6.00;;;;;;;17.16;100.00;95659.47;6215011;23;20012;-84
2023/08/28 06:39:58;;;;;;;7.18;5.38;;;;;;;17.05;100.00;95642.38;6189620;23;20400;-83
2023/08/28 06:42:27;;;;;;;7.68;5.15;;;;;;;17.33;100.00;95633.19;6214750;23;20337;-84
2023/08/28 06:44:53;;;;;;;8.57;5.32;;;;;;;17.56;100.00;95628.09;6212881;23;20011;-84
2023/08/28 06:47:18;;;;;;;7.55;4.97;;;;;;;17.44;100.00;95624.53;6241001;23;20008;-84
2023/08/28 06:49:56;;;;;;;8.93;4.57;;;;;;;17.22;100.00;95634.72;6188484;23;20012;-84
2023/08/28 06:52:23;;;;;;;7.93;4.72;;;;;;;17.22;100.00;95629.41;6188778;23;20004;-84
2023/08/28 06:54:48;;;;;;;7.15;5.13;;;;;;;17.18;100.00;95629.00;6189313;23;20037;-84
2023/08/28 06:57:14;;;;;;;6.63;4.63;;;;;;;17.30;100.00;95605.19;6214400;23;20038;-84
2023/08/28 06:59:39;;;;;;;6.18;4.55;;;;;;;17.37;100.00;95603.34;6214419;23;20011;-83
2023/08/28 07:02:05;;;;;;;9.15;4.43;;;;;;;17.16;100.00;95611.66;6192038;23;20008;-83
2023/08/28 07:04:32;;;;;;;6.45;4.32;;;;;;;17.22;100.00;95610.78;6213489;23;20016;-83
2023/08/28 07:06:58;;;;;;;6.88;4.55;;;;;;;17.26;100.00;95611.97;6214638;23;20008;-83
2023/08/28 07:09:24;;;;;;;6.57;4.43;;;;;;;17.35;100.00;95604.56;6190072;23;20428;-83
2023/08/28 07:11:49;;;;;;;9.48;4.72;;;;;;;17.26;100.00;95611.19;6193236;23;20011;-83
2023/08/28 07:14:15;;;;;;;7.00;4.80;;;;;;;17.19;100.00;95617.34;6215171;23;20384;-83
2023/08/28 07:16:40;;;;;;;10.85;4.38;;;;;;;17.28;100.00;95625.06;6190303;23;20445;-83
2023/08/28 07:19:07;;;;;;;6.35;4.38;;;;;;;17.47;100.00;95634.75;6240728;23;20000;-83
2023/08/28 07:21:33;;;;;;;10.30;4.25;;;;;;;17.44;100.00;95635.19;6188877;23;20011;-83
2023/08/28 07:23:58;;;;;;;6.40;4.00;;;;;;;17.30;100.00;95634.44;6214294;23;20004;-83
2023/08/28 07:26:24;;;;;;;8.40;3.80;;;;;;;17.11;100.00;95635.41;6189071;23;20042;-83
2023/08/28 07:28:52;;;;;;;7.78;3.65;;;;;;;17.16;100.00;95631.06;6190710;23;20441;-84
2023/08/28 07:31:18;;;;;;;7.20;3.63;;;;;;;17.30;100.00;95630.97;6189877;23;20028;-84
2023/08/28 07:33:44;;;;;;;5.88;3.70;;;;;;;17.53;100.00;95638.34;6189332;23;20004;-85
2023/08/28 07:36:11;;;;;;;7.80;4.05;;;;;;;17.31;100.00;95640.59;6189967;23;20008;-84
2023/08/28 07:38:43;;;;;;;4.53;3.58;;;;;;;17.36;100.00;95644.22;6218334;23;20000;-84
2023/08/28 07:41:08;;;;;;;5.40;3.53;;;;;;;17.39;100.00;95632.34;6216858;23;20344;-85
2023/08/28 07:43:34;;;;;;;7.40;3.72;;;;;;;17.23;100.00;95624.91;6218470;23;20091;-85
2023/08/28 07:45:59;;;;;;;6.45;3.50;;;;;;;17.40;100.00;95624.16;6191488;23;20002;-85
2023/08/28 07:48:25;;;;;;;8.50;3.92;;;;;;;17.30;100.00;95620.34;6193214;23;20000;-85
2023/08/28 07:50:50;;;;;;;5.95;3.50;;;;;;;17.22;100.00;95620.63;6191736;23;20023;-85
2023/08/28 07:53:16;;;;;;;6.55;3.75;;;;;;;17.30;100.00;95623.00;6217700;23;20306;-85
2023/08/28 07:55:41;;;;;;;7.03;3.70;;;;;;;17.44;100.00;95635.97;6191619;23;20000;-85
2023/08/28 07:58:09;;;;;;;4.82;2.92;;;;;;;17.40;100.00;95623.31;6192071;23;20004;-85
2023/08/28 08:00:41;;;;;;;4.50;2.88;;;;;;;17.32;100.00;95632.38;6191598;23;20395;-85
2023/08/28 08:03:15;;;;;;;6.78;3.28;;;;;;;17.10;100.00;95629.28;6191879;23;20015;-86
2023/08/28 08:05:52;;;;;;;6.35;3.35;;;;;;;17.23;100.00;95630.22;6216587;23;20022;-85
2023/08/28 08:08:18;;;;;;;3.97;2.80;;;;;;;17.19;100.00;95635.13;6191413;23;20022;-85
2023/08/28 08:10:43;;;;;;;6.45;2.97;;;;;;;17.13;100.00;95644.78;6192243;23;20008;-85
2023/08/28 08:13:17;;;;;;;6.82;3.08;;;;;;;17.38;100.00;95652.78;6191392;23;20012;-85
2023/08/28 08:16:00;;;;;;;5.55;3.58;;;;;;;17.00;100.00;95660.81;6191832;23;20391;-85
2023/08/28 08:18:27;;;;;;;6.75;3.60;;;;;;;16.88;100.00;95667.81;6191980;23;20341;-85
2023/08/28 08:20:53;;;;;;;5.97;3.65;;;;;;;16.94;100.00;95672.28;6190856;23;20000;-85
2023/08/28 08:23:18;;;;;;;6.95;3.20;;;;;;;17.15;100.00;95671.16;6192406;23;20114;-85
2023/08/28 08:25:44;;;;;;;5.82;3.50;;;;;;;17.34;100.00;95664.91;6217365;23;20008;-85
2023/08/28 08:28:15;;;;;;;7.97;3.58;;;;;;;17.32;100.00;95676.75;6190194;23;20008;-85
2023/08/28 08:30:41;;;;;;;6.72;3.75;;;;;;;17.35;100.00;95701.06;6215980;23;20070;-85
2023/08/28 08:33:07;;;;;;;6.57;3.95;;;;;;;17.06;100.00;95704.28;6191510;23;20000;-85
2023/08/28 08:35:34;;;;;;;5.78;4.22;;;;;;;17.40;100.00;95698.59;6191776;23;20039;-85
2023/08/28 08:38:00;;;;;;;8.07;4.55;;;;;;;17.49;100.00;95707.09;6191752;23;20008;-85
2023/08/28 08:40:27;;;;;;;6.53;4.13;;;;;;;17.54;100.00;95703.78;6215431;23;20091;-84
2023/08/28 08:42:56;;;;;;;5.15;3.78;;;;;;;17.42;100.00;95695.69;6216349;23;20004;-84
2023/08/28 08:45:37;;;;;;;8.60;4.28;;;;;;;17.30;100.00;95692.91;6189718;23;20004;-84
2023/08/28 08:48:06;;;;;;;6.03;3.58;;;;;;;17.25;100.00;95699.91;6189823;23;20448;-84
2023/08/28 08:50:35;;;;;;;6.85;4.30;;;;;;;17.39;100.00;95718.19;6215702;23;20012;-84
2023/08/28 08:53:06;;;;;;;5.97;3.60;;;;;;;17.36;100.00;95712.50;6190961;23;20038;-85
2023/08/28 08:55:39;;;;;;;7.00;4.70;;;;;;;17.47;100.00;95711.84;6216522;23;19996;-85
2023/08/28 08:58:11;;;;;;;6.70;4.07;;;;;;;17.52;100.00;95706.66;6191527;23;20008;-85
2023/08/28 09:00:44;;;;;;;7.38;4.30;;;;;;;17.40;100.00;95703.06;6215504;23;20004;-85
2023/08/28 09:03:14;;;;;;;8.90;4.43;;;;;;;17.29;100.00;95706.41;6190844;23;20007;-85
2023/08/28 09:05:41;;;;;;;8.50;4.28;;;;;;;17.32;100.00;95706.00;6191123;23;20004;-84
2023/08/28 09:08:07;;;;;;;6.53;4.32;;;;;;;17.36;100.00;95705.34;6192326;23;20064;-84
2023/08/28 09:10:33;;;;;;;7.75;3.88;;;;;;;17.31;100.00;95707.03;6216814;23;20454;-85
2023/08/28 09:12:59;;;;;;;10.48;4.25;;;;;;;17.35;100.00;95694.94;6217216;23;20008;-84
2023/08/28 09:15:25;;;;;;;8.00;4.60;;;;;;;17.31;100.00;95696.41;6243103;23;20135;-84
2023/08/28 09:17:52;;;;;;;7.25;4.80;;;;;;;17.37;100.00;95696.34;6215978;23;20066;-83
2023/08/28 09:20:20;;;;;;;7.35;5.05;;;;;;;17.26;100.00;95705.00;6241449;23;20015;-84
2023/08/28 09:22:54;;;;;;;7.25;4.63;;;;;;;17.05;100.00;95716.78;6192133;23;20031;-84
2023/08/28 09:25:24;;;;;;;7.90;5.25;;;;;;;17.26;100.00;95709.50;6191998;23;20007;-84
2023/08/28 09:27:56;;;;;;;7.00;5.15;;;;;;;17.30;100.00;95681.47;6192779;23;20008;-85
2023/08/28 09:30:29;;;;;;;7.60;5.28;;;;;;;17.25;100.00;95670.69;6191687;23;20094;-84
2023/08/28 09:32:59;;;;;;;7.03;5.03;;;;;;;17.39;100.00;95656.25;6190877;23;20018;-85
2023/08/28 09:35:27;;;;;;;8.10;5.78;;;;;;;17.43;100.00;95660.09;6216118;23;20008;-85
2023/08/28 09:37:57;;;;;;;7.18;5.20;;;;;;;17.65;100.00;95661.38;6216004;23;20004;-85
2023/08/28 09:40:29;;;;;;;9.57;5.97;;;;;;;17.68;100.00;95652.16;6215150;23;20027;-85
2023/08/28 09:42:55;;;;;;;9.83;5.43;;;;;;;17.57;100.00;95652.84;6190484;23;20004;-86
2023/08/28 09:45:28;;;;;;;10.57;6.10;;;;;;;17.88;100.00;95634.19;6189930;23;21237;-86
2023/08/28 09:47:55;;;;;;;9.00;6.22;;;;;;;18.21;100.00;95645.50;6190895;23;20004;-86
2023/08/28 09:50:29;;;;;;;8.82;6.20;;;;;;;18.54;100.00;95643.31;6190479;23;20086;-85
2023/08/28 09:52:54;;;;;;;8.45;5.82;;;;;;;18.44;100.00;95644.84;6191139;23;20011;-86
2023/08/28 09:55:22;;;;;;;9.45;6.38;;;;;;;18.52;100.00;95637.41;6191371;23;20011;-85
2023/08/28 09:57:49;;;;;;;10.20;6.18;;;;;;;18.72;100.00;95626.53;6190791;23;20008;-85
2023/08/28 10:00:15;;;;;;;8.85;5.40;;;;;;;18.51;100.00;95624.28;6191272;23;20050;-86
2023/08/28 10:02:42;;;;;;;6.72;5.07;;;;;;;18.66;100.00;95610.59;6215858;23;20011;-86
2023/08/28 10:05:09;;;;;;;8.45;5.63;;;;;;;18.76;100.00;95614.38;6191226;23;20094;-84
2023/08/28 10:07:39;;;;;;;6.47;4.57;;;;;;;18.29;100.00;95608.78;6216836;23;20365;-85
2023/08/28 10:10:05;;;;;;;6.35;4.90;;;;;;;18.69;100.00;95610.16;6190650;23;20062;-85
2023/08/28 10:12:33;;;;;;;6.15;4.57;;;;;;;18.68;100.00;95608.50;6191380;23;20008;-84
2023/08/28 10:15:01;;;;;;;9.43;5.90;;;;;;;18.70;100.00;95604.59;6242301;23;20011;-85
2023/08/28 10:17:32;;;;;;;6.50;5.00;;;;;;;18.75;100.00;95596.78;6191196;23;20027;-85
2023/08/28 10:20:01;;;;;;;8.77;5.18;;;;;;;18.93;100.00;95579.91;6190914;23;20703;-83
2023/08/28 10:22:30;;;;;;;7.28;5.20;;;;;;;19.00;100.00;95583.28;6190765;23;20007;-85
2023/08/28 10:24:57;;;;;;;7.60;5.55;;;;;;;18.68;100.00;95592.53;6190560;23;20003;-85
2023/08/28 10:27:29;;;;;;;6.95;5.03;;;;;;;19.03;100.00;95582.84;6217296;23;20046;-85
2023/08/28 10:29:55;;;;;;;7.60;5.75;;;;;;;18.73;100.00;95580.19;6192511;23;20074;-85
2023/08/28 10:32:22;;;;;;;7.97;6.43;;;;;;;18.88;100.00;95571.81;6193421;23;20008;-89
2023/08/28 10:34:50;;;;;;;6.40;4.72;;;;;;;18.84;100.00;95575.94;6191326;23;20004;-86
2023/08/28 10:37:17;;;;;;;7.00;5.55;;;;;;;18.60;100.00;95570.50;6192840;23;20043;-85
2023/08/28 10:39:43;;;;;;;8.55;5.30;;;;;;;18.93;100.00;95568.44;6191099;23;20010;-85
2023/08/28 10:42:26;;;;;;;8.95;5.32;;;;;;;18.90;100.00;95569.72;6216051;23;20007;-82
2023/08/28 10:44:52;;;;;;;6.78;5.10;;;;;;;19.14;100.00;95564.44;6190406;23;20008;-84
2023/08/28 10:47:19;;;;;;;7.38;5.22;;;;;;;18.81;100.00;95560.41;6190980;23;20451;-85
2023/08/28 10:49:57;;;;;;;7.38;5.03;;;;;;;18.92;100.00;95559.66;6190092;23;20070;-89
2023/08/28 10:52:23;;;;;;;6.38;5.38;;;;;;;18.84;100.00;95546.63;6190816;23;20015;-84
2023/08/28 10:55:08;;;;;;;7.93;5.07;;;;;;;18.82;100.00;95546.06;6190584;23;20015;-85
2023/08/28 10:57:40;;;;;;;8.70;6.30;;;;;;;19.05;100.00;95542.66;6215967;23;20452;-84
2023/08/28 11:00:21;;;;;;;9.18;6.85;;;;;;;19.16;100.00;95544.50;6190814;23;20000;-85
2023/08/28 11:03:25;;;;;;;8.93;5.35;;;;;;;18.89;100.00;95530.78;6215193;23;20031;-91
2023/08/28 11:06:45;;;;;;;6.68;5.68;;;;;;;18.86;100.00;95541.09;6096237;23;20013;-86
2023/08/28 11:09:29;;;;;;;6.68;4.90;;;;;;;18.96;100.00;95536.81;6037325;23;20065;-86
2023/08/28 11:11:57;;;;;;;8.13;5.43;;;;;;;19.29;100.00;95530.16;6176813;23;20031;-86
2023/08/28 11:14:34;;;;;;;8.15;4.82;;;;;;;18.91;100.00;95542.00;6192419;23;20008;-86
2023/08/28 11:17:11;;;;;;;7.70;5.93;;;;;;;19.03;100.00;95547.38;6217412;23;20000;-86
2023/08/28 11:19:53;;;;;;;7.05;5.57;;;;;;;18.95;100.00;95543.22;6190013;23;20054;-84
2023/08/28 11:22:36;;;;;;;6.35;4.88;;;;;;;19.07;100.00;95544.03;6188114;23;20082;-85
2023/08/28 11:25:04;;;;;;;6.45;5.07;;;;;;;18.98;100.00;95524.09;6215064;23;20007;-84
2023/08/28 11:27:36;;;;;;;9.63;5.57;;;;;;;18.78;100.00;95521.75;6192076;23;20008;-84
2023/08/28 11:30:06;;;;;;;6.82;5.35;;;;;;;19.14;100.00;95517.25;6191444;23;20090;-84